sensor_id;sensor_type;location;lat;lon;timestamp;P1;durP1;ratioP1;P2;durP2;ratioP2
12776;SDS011;6452;41.572;23.732;2023-04-10T00:01:17;3.72;;;3.38;;
12776;SDS011;6452;41.572;23.732;2023-04-10T00:03:43;4.15;;;3.70;;
12776;SDS011;6452;41.572;23.732;2023-04-10T00:06:09;3.80;;;3.50;;
12776;SDS011;6452;41.572;23.732;2023-04-10T00:08:35;3.70;;;3.22;;
12776;SDS011;6452;41.572;23.732;2023-04-10T00:11:01;3.50;;;3.20;;
12776;SDS011;6452;41.572;23.732;2023-04-10T00:13:28;3.97;;;3.67;;
12776;SDS011;6452;41.572;23.732;2023-04-10T00:15:54;3.67;;;3.38;;
12776;SDS011;6452;41.572;23.732;2023-04-10T00:18:22;3.63;;;3.20;;
12776;SDS011;6452;41.572;23.732;2023-04-10T00:20:48;3.80;;;3.50;;
12776;SDS011;6452;41.572;23.732;2023-04-10T00:23:13;3.45;;;3.15;;
12776;SDS011;6452;41.572;23.732;2023-04-10T00:25:40;5.13;;;3.88;;
12776;SDS011;6452;41.572;23.732;2023-04-10T00:28:06;5.75;;;4.72;;
12776;SDS011;6452;41.572;23.732;2023-04-10T00:30:32;6.60;;;4.97;;
12776;SDS011;6452;41.572;23.732;2023-04-10T00:32:58;4.78;;;4.15;;
12776;SDS011;6452;41.572;23.732;2023-04-10T00:35:24;4.90;;;4.00;;
12776;SDS011;6452;41.572;23.732;2023-04-10T00:37:51;4.18;;;3.83;;
12776;SDS011;6452;41.572;23.732;2023-04-10T00:40:19;4.85;;;3.22;;
12776;SDS011;6452;41.572;23.732;2023-04-10T00:42:46;4.93;;;3.70;;
12776;SDS011;6452;41.572;23.732;2023-04-10T00:45:12;3.97;;;3.35;;
12776;SDS011;6452;41.572;23.732;2023-04-10T00:47:38;2.78;;;2.58;;
12776;SDS011;6452;41.572;23.732;2023-04-10T00:50:05;4.05;;;3.63;;
12776;SDS011;6452;41.572;23.732;2023-04-10T00:52:31;5.68;;;4.35;;
12776;SDS011;6452;41.572;23.732;2023-04-10T00:54:57;4.03;;;3.72;;
12776;SDS011;6452;41.572;23.732;2023-04-10T00:57:23;5.22;;;4.72;;
12776;SDS011;6452;41.572;23.732;2023-04-10T00:59:51;4.55;;;4.03;;
12776;SDS011;6452;41.572;23.732;2023-04-10T01:02:17;5.72;;;4.82;;
12776;SDS011;6452;41.572;23.732;2023-04-10T01:04:44;5.35;;;4.20;;
12776;SDS011;6452;41.572;23.732;2023-04-10T01:07:14;6.15;;;4.60;;
12776;SDS011;6452;41.572;23.732;2023-04-10T01:09:48;4.70;;;3.88;;
12776;SDS011;6452;41.572;23.732;2023-04-10T01:17:28;3.65;;;3.35;;
12776;SDS011;6452;41.572;23.732;2023-04-10T01:19:57;5.05;;;3.88;;
12776;SDS011;6452;41.572;23.732;2023-04-10T01:22:28;5.47;;;3.72;;
12776;SDS011;6452;41.572;23.732;2023-04-10T01:25:04;7.88;;;4.20;;
12776;SDS011;6452;41.572;23.732;2023-04-10T01:27:59;5.68;;;4.20;;
12776;SDS011;6452;41.572;23.732;2023-04-10T01:30:27;3.70;;;3.33;;
12776;SDS011;6452;41.572;23.732;2023-04-10T01:32:55;4.25;;;3.75;;
12776;SDS011;6452;41.572;23.732;2023-04-10T01:35:22;3.92;;;3.58;;
12776;SDS011;6452;41.572;23.732;2023-04-10T01:37:48;4.22;;;3.55;;
12776;SDS011;6452;41.572;23.732;2023-04-10T01:40:16;4.75;;;3.88;;
12776;SDS011;6452;41.572;23.732;2023-04-10T01:42:43;5.60;;;3.80;;
12776;SDS011;6452;41.572;23.732;2023-04-10T01:45:13;3.13;;;2.90;;
12776;SDS011;6452;41.572;23.732;2023-04-10T01:47:41;3.95;;;3.63;;
12776;SDS011;6452;41.572;23.732;2023-04-10T01:50:08;4.10;;;3.70;;
12776;SDS011;6452;41.572;23.732;2023-04-10T01:52:36;4.60;;;3.97;;
12776;SDS011;6452;41.572;23.732;2023-04-10T01:55:02;4.28;;;3.92;;
12776;SDS011;6452;41.572;23.732;2023-04-10T01:57:29;4.60;;;4.13;;
12776;SDS011;6452;41.572;23.732;2023-04-10T01:59:56;5.50;;;3.97;;
12776;SDS011;6452;41.572;23.732;2023-04-10T02:02:22;4.72;;;3.78;;
12776;SDS011;6452;41.572;23.732;2023-04-10T02:04:48;4.13;;;3.72;;
12776;SDS011;6452;41.572;23.732;2023-04-10T02:12:22;3.72;;;3.40;;
12776;SDS011;6452;41.572;23.732;2023-04-10T02:14:51;4.15;;;3.75;;
12776;SDS011;6452;41.572;23.732;2023-04-10T02:17:19;5.95;;;4.47;;
12776;SDS011;6452;41.572;23.732;2023-04-10T02:19:48;5.32;;;4.35;;
12776;SDS011;6452;41.572;23.732;2023-04-10T02:22:15;3.42;;;3.13;;
12776;SDS011;6452;41.572;23.732;2023-04-10T02:24:42;4.28;;;3.78;;
12776;SDS011;6452;41.572;23.732;2023-04-10T02:27:08;4.70;;;3.72;;
12776;SDS011;6452;41.572;23.732;2023-04-10T02:29:34;3.83;;;3.50;;
12776;SDS011;6452;41.572;23.732;2023-04-10T02:32:00;4.43;;;3.42;;
12776;SDS011;6452;41.572;23.732;2023-04-10T02:34:26;5.82;;;4.10;;
12776;SDS011;6452;41.572;23.732;2023-04-10T02:36:52;4.60;;;4.20;;
12776;SDS011;6452;41.572;23.732;2023-04-10T02:39:19;7.07;;;5.10;;
12776;SDS011;6452;41.572;23.732;2023-04-10T02:41:45;6.75;;;5.50;;
12776;SDS011;6452;41.572;23.732;2023-04-10T02:44:11;6.15;;;4.90;;
12776;SDS011;6452;41.572;23.732;2023-04-10T02:46:37;6.20;;;5.13;;
12776;SDS011;6452;41.572;23.732;2023-04-10T02:49:03;7.80;;;5.32;;
12776;SDS011;6452;41.572;23.732;2023-04-10T02:51:33;4.65;;;4.25;;
12776;SDS011;6452;41.572;23.732;2023-04-10T02:53:59;4.68;;;3.80;;
12776;SDS011;6452;41.572;23.732;2023-04-10T02:56:25;6.57;;;5.00;;
12776;SDS011;6452;41.572;23.732;2023-04-10T02:58:52;7.95;;;4.22;;
12776;SDS011;6452;41.572;23.732;2023-04-10T03:01:17;5.53;;;4.35;;
12776;SDS011;6452;41.572;23.732;2023-04-10T03:03:44;3.90;;;3.55;;
12776;SDS011;6452;41.572;23.732;2023-04-10T03:06:10;4.32;;;3.47;;
12776;SDS011;6452;41.572;23.732;2023-04-10T03:08:36;8.75;;;5.22;;
12776;SDS011;6452;41.572;23.732;2023-04-10T03:11:02;8.10;;;6.13;;
12776;SDS011;6452;41.572;23.732;2023-04-10T03:13:28;6.38;;;5.22;;
12776;SDS011;6452;41.572;23.732;2023-04-10T03:15:54;25.33;;;12.63;;
12776;SDS011;6452;41.572;23.732;2023-04-10T03:18:20;19.15;;;9.85;;
12776;SDS011;6452;41.572;23.732;2023-04-10T03:20:47;9.80;;;5.60;;
12776;SDS011;6452;41.572;23.732;2023-04-10T03:23:13;7.72;;;5.00;;
12776;SDS011;6452;41.572;23.732;2023-04-10T03:25:39;12.63;;;7.15;;
12776;SDS011;6452;41.572;23.732;2023-04-10T03:28:05;27.92;;;10.38;;
12776;SDS011;6452;41.572;23.732;2023-04-10T03:30:31;34.40;;;16.65;;
12776;SDS011;6452;41.572;23.732;2023-04-10T03:32:59;40.55;;;16.15;;
12776;SDS011;6452;41.572;23.732;2023-04-10T03:35:25;21.45;;;11.18;;
12776;SDS011;6452;41.572;23.732;2023-04-10T03:37:52;31.98;;;15.60;;
12776;SDS011;6452;41.572;23.732;2023-04-10T03:40:18;21.77;;;11.85;;
12776;SDS011;6452;41.572;23.732;2023-04-10T03:42:43;10.88;;;7.30;;
12776;SDS011;6452;41.572;23.732;2023-04-10T03:45:10;14.43;;;7.85;;
12776;SDS011;6452;41.572;23.732;2023-04-10T03:47:37;7.68;;;6.07;;
12776;SDS011;6452;41.572;23.732;2023-04-10T03:50:04;17.70;;;10.52;;
12776;SDS011;6452;41.572;23.732;2023-04-10T03:52:31;18.42;;;9.95;;
12776;SDS011;6452;41.572;23.732;2023-04-10T03:54:57;14.48;;;8.57;;
12776;SDS011;6452;41.572;23.732;2023-04-10T03:57:23;10.77;;;6.75;;
12776;SDS011;6452;41.572;23.732;2023-04-10T03:59:49;12.38;;;7.82;;
12776;SDS011;6452;41.572;23.732;2023-04-10T04:02:16;10.57;;;6.80;;
12776;SDS011;6452;41.572;23.732;2023-04-10T04:04:42;7.55;;;5.90;;
12776;SDS011;6452;41.572;23.732;2023-04-10T04:07:08;12.32;;;8.15;;
12776;SDS011;6452;41.572;23.732;2023-04-10T04:09:34;7.60;;;6.22;;
12776;SDS011;6452;41.572;23.732;2023-04-10T04:12:00;6.88;;;5.35;;
12776;SDS011;6452;41.572;23.732;2023-04-10T04:14:26;6.38;;;4.72;;
12776;SDS011;6452;41.572;23.732;2023-04-10T04:16:53;10.98;;;7.78;;
12776;SDS011;6452;41.572;23.732;2023-04-10T04:19:19;7.57;;;6.22;;
12776;SDS011;6452;41.572;23.732;2023-04-10T04:21:45;8.13;;;5.20;;
12776;SDS011;6452;41.572;23.732;2023-04-10T04:24:11;5.97;;;4.75;;
12776;SDS011;6452;41.572;23.732;2023-04-10T04:26:37;3.63;;;3.33;;
12776;SDS011;6452;41.572;23.732;2023-04-10T04:29:03;4.43;;;4.03;;
12776;SDS011;6452;41.572;23.732;2023-04-10T04:31:29;4.68;;;4.07;;
12776;SDS011;6452;41.572;23.732;2023-04-10T04:33:57;5.57;;;4.50;;
12776;SDS011;6452;41.572;23.732;2023-04-10T04:36:23;4.63;;;4.22;;
12776;SDS011;6452;41.572;23.732;2023-04-10T04:38:50;6.20;;;4.43;;
12776;SDS011;6452;41.572;23.732;2023-04-10T04:41:16;3.80;;;3.40;;
12776;SDS011;6452;41.572;23.732;2023-04-10T04:43:42;4.32;;;3.92;;
12776;SDS011;6452;41.572;23.732;2023-04-10T04:46:08;5.43;;;4.68;;
12776;SDS011;6452;41.572;23.732;2023-04-10T04:48:34;5.03;;;3.90;;
12776;SDS011;6452;41.572;23.732;2023-04-10T04:51:00;4.05;;;3.63;;
12776;SDS011;6452;41.572;23.732;2023-04-10T04:53:26;4.50;;;4.10;;
12776;SDS011;6452;41.572;23.732;2023-04-10T04:55:52;5.35;;;4.47;;
12776;SDS011;6452;41.572;23.732;2023-04-10T04:58:18;5.15;;;3.95;;
12776;SDS011;6452;41.572;23.732;2023-04-10T05:00:45;4.93;;;3.90;;
12776;SDS011;6452;41.572;23.732;2023-04-10T05:03:11;3.97;;;3.67;;
12776;SDS011;6452;41.572;23.732;2023-04-10T05:05:38;4.00;;;3.30;;
12776;SDS011;6452;41.572;23.732;2023-04-10T05:08:04;3.17;;;2.83;;
12776;SDS011;6452;41.572;23.732;2023-04-10T05:10:30;3.47;;;3.17;;
12776;SDS011;6452;41.572;23.732;2023-04-10T05:12:56;2.60;;;2.50;;
12776;SDS011;6452;41.572;23.732;2023-04-10T05:15:23;3.15;;;2.90;;
12776;SDS011;6452;41.572;23.732;2023-04-10T05:17:49;2.90;;;2.70;;
12776;SDS011;6452;41.572;23.732;2023-04-10T05:20:20;2.67;;;2.47;;
12776;SDS011;6452;41.572;23.732;2023-04-10T05:22:49;2.47;;;2.28;;
12776;SDS011;6452;41.572;23.732;2023-04-10T05:25:17;2.80;;;2.60;;
12776;SDS011;6452;41.572;23.732;2023-04-10T05:27:43;2.60;;;2.40;;
12776;SDS011;6452;41.572;23.732;2023-04-10T05:30:09;2.63;;;2.42;;
12776;SDS011;6452;41.572;23.732;2023-04-10T05:32:37;2.03;;;1.92;;
12776;SDS011;6452;41.572;23.732;2023-04-10T05:35:03;2.30;;;2.20;;
12776;SDS011;6452;41.572;23.732;2023-04-10T05:37:30;2.28;;;2.13;;
12776;SDS011;6452;41.572;23.732;2023-04-10T05:39:56;2.17;;;2.08;;
12776;SDS011;6452;41.572;23.732;2023-04-10T05:42:22;2.15;;;2.05;;
12776;SDS011;6452;41.572;23.732;2023-04-10T05:44:48;2.70;;;2.50;;
12776;SDS011;6452;41.572;23.732;2023-04-10T05:47:15;1.90;;;1.80;;
12776;SDS011;6452;41.572;23.732;2023-04-10T05:49:41;2.15;;;2.05;;
12776;SDS011;6452;41.572;23.732;2023-04-10T05:52:07;2.45;;;2.25;;
12776;SDS011;6452;41.572;23.732;2023-04-10T05:54:33;2.38;;;2.20;;
12776;SDS011;6452;41.572;23.732;2023-04-10T05:56:59;2.42;;;2.22;;
12776;SDS011;6452;41.572;23.732;2023-04-10T05:59:26;2.33;;;2.22;;
12776;SDS011;6452;41.572;23.732;2023-04-10T06:01:52;2.40;;;2.30;;
12776;SDS011;6452;41.572;23.732;2023-04-10T06:04:18;2.40;;;2.30;;
12776;SDS011;6452;41.572;23.732;2023-04-10T06:06:45;2.22;;;2.13;;
12776;SDS011;6452;41.572;23.732;2023-04-10T06:09:12;3.00;;;2.50;;
12776;SDS011;6452;41.572;23.732;2023-04-10T06:11:38;2.10;;;2.00;;
12776;SDS011;6452;41.572;23.732;2023-04-10T06:14:04;2.47;;;2.35;;
12776;SDS011;6452;41.572;23.732;2023-04-10T06:16:30;2.42;;;2.25;;
12776;SDS011;6452;41.572;23.732;2023-04-10T06:18:56;4.10;;;2.72;;
12776;SDS011;6452;41.572;23.732;2023-04-10T06:21:22;2.80;;;2.60;;
12776;SDS011;6452;41.572;23.732;2023-04-10T06:23:48;2.38;;;2.17;;
12776;SDS011;6452;41.572;23.732;2023-04-10T06:26:14;2.40;;;2.20;;
12776;SDS011;6452;41.572;23.732;2023-04-10T06:28:40;2.20;;;2.10;;
12776;SDS011;6452;41.572;23.732;2023-04-10T06:31:06;2.25;;;2.15;;
12776;SDS011;6452;41.572;23.732;2023-04-10T06:33:33;2.35;;;2.25;;
12776;SDS011;6452;41.572;23.732;2023-04-10T06:36:01;1.88;;;1.77;;
12776;SDS011;6452;41.572;23.732;2023-04-10T06:38:28;1.85;;;1.70;;
12776;SDS011;6452;41.572;23.732;2023-04-10T06:40:54;2.30;;;2.10;;
12776;SDS011;6452;41.572;23.732;2023-04-10T06:43:20;1.92;;;1.88;;
12776;SDS011;6452;41.572;23.732;2023-04-10T06:45:46;1.92;;;1.88;;
12776;SDS011;6452;41.572;23.732;2023-04-10T06:48:13;1.88;;;1.77;;
12776;SDS011;6452;41.572;23.732;2023-04-10T06:50:39;3.05;;;1.42;;
12776;SDS011;6452;41.572;23.732;2023-04-10T06:53:06;1.25;;;1.25;;
12776;SDS011;6452;41.572;23.732;2023-04-10T06:55:32;1.85;;;1.75;;
12776;SDS011;6452;41.572;23.732;2023-04-10T06:57:58;1.50;;;1.50;;
12776;SDS011;6452;41.572;23.732;2023-04-10T07:00:25;1.92;;;1.83;;
12776;SDS011;6452;41.572;23.732;2023-04-10T07:02:51;1.88;;;1.77;;
12776;SDS011;6452;41.572;23.732;2023-04-10T07:05:17;2.13;;;1.92;;
12776;SDS011;6452;41.572;23.732;2023-04-10T07:07:44;1.95;;;1.85;;
12776;SDS011;6452;41.572;23.732;2023-04-10T07:10:11;2.03;;;1.92;;
12776;SDS011;6452;41.572;23.732;2023-04-10T07:12:38;1.65;;;1.55;;
12776;SDS011;6452;41.572;23.732;2023-04-10T07:15:04;2.13;;;2.03;;
12776;SDS011;6452;41.572;23.732;2023-04-10T07:17:32;1.80;;;1.73;;
12776;SDS011;6452;41.572;23.732;2023-04-10T07:19:58;1.85;;;1.75;;
12776;SDS011;6452;41.572;23.732;2023-04-10T07:22:25;1.90;;;1.80;;
12776;SDS011;6452;41.572;23.732;2023-04-10T07:24:51;2.20;;;2.10;;
12776;SDS011;6452;41.572;23.732;2023-04-10T07:27:17;1.98;;;1.88;;
12776;SDS011;6452;41.572;23.732;2023-04-10T07:29:45;1.92;;;1.83;;
12776;SDS011;6452;41.572;23.732;2023-04-10T07:32:11;1.83;;;1.73;;
12776;SDS011;6452;41.572;23.732;2023-04-10T07:34:37;1.70;;;1.60;;
12776;SDS011;6452;41.572;23.732;2023-04-10T07:37:03;1.90;;;1.80;;
12776;SDS011;6452;41.572;23.732;2023-04-10T07:39:30;1.80;;;1.70;;
12776;SDS011;6452;41.572;23.732;2023-04-10T07:41:56;1.35;;;1.35;;
12776;SDS011;6452;41.572;23.732;2023-04-10T07:44:22;4.03;;;2.47;;
12776;SDS011;6452;41.572;23.732;2023-04-10T07:46:50;1.80;;;1.70;;
12776;SDS011;6452;41.572;23.732;2023-04-10T07:49:17;2.03;;;1.50;;
12776;SDS011;6452;41.572;23.732;2023-04-10T07:51:43;1.40;;;1.40;;
12776;SDS011;6452;41.572;23.732;2023-04-10T07:54:09;1.75;;;1.65;;
12776;SDS011;6452;41.572;23.732;2023-04-10T07:56:35;2.17;;;2.08;;
12776;SDS011;6452;41.572;23.732;2023-04-10T07:59:01;2.35;;;2.15;;
12776;SDS011;6452;41.572;23.732;2023-04-10T08:01:27;1.90;;;1.80;;
12776;SDS011;6452;41.572;23.732;2023-04-10T08:03:54;1.88;;;1.77;;
12776;SDS011;6452;41.572;23.732;2023-04-10T08:06:20;2.10;;;1.98;;
12776;SDS011;6452;41.572;23.732;2023-04-10T08:08:46;2.33;;;2.20;;
12776;SDS011;6452;41.572;23.732;2023-04-10T08:11:25;2.38;;;1.85;;
12776;SDS011;6452;41.572;23.732;2023-04-10T08:13:55;2.17;;;2.00;;
12776;SDS011;6452;41.572;23.732;2023-04-10T08:16:23;2.40;;;2.30;;
12776;SDS011;6452;41.572;23.732;2023-04-10T08:18:49;2.13;;;2.03;;
12776;SDS011;6452;41.572;23.732;2023-04-10T08:21:15;1.65;;;1.65;;
12776;SDS011;6452;41.572;23.732;2023-04-10T08:23:42;1.90;;;1.80;;
12776;SDS011;6452;41.572;23.732;2023-04-10T08:26:08;1.75;;;1.75;;
12776;SDS011;6452;41.572;23.732;2023-04-10T08:28:34;1.70;;;1.60;;
12776;SDS011;6452;41.572;23.732;2023-04-10T08:31:01;2.25;;;2.05;;
12776;SDS011;6452;41.572;23.732;2023-04-10T08:33:27;1.92;;;1.83;;
12776;SDS011;6452;41.572;23.732;2023-04-10T08:35:53;1.80;;;1.70;;
12776;SDS011;6452;41.572;23.732;2023-04-10T08:38:20;1.92;;;1.83;;
12776;SDS011;6452;41.572;23.732;2023-04-10T08:40:52;2.10;;;2.00;;
12776;SDS011;6452;41.572;23.732;2023-04-10T08:43:18;2.00;;;1.90;;
12776;SDS011;6452;41.572;23.732;2023-04-10T08:45:44;1.63;;;1.58;;
12776;SDS011;6452;41.572;23.732;2023-04-10T08:48:14;1.20;;;1.20;;
12776;SDS011;6452;41.572;23.732;2023-04-10T08:50:41;2.08;;;1.98;;
12776;SDS011;6452;41.572;23.732;2023-04-10T08:53:09;2.00;;;1.90;;
12776;SDS011;6452;41.572;23.732;2023-04-10T08:55:37;1.80;;;1.70;;
12776;SDS011;6452;41.572;23.732;2023-04-10T08:58:03;2.00;;;1.60;;
12776;SDS011;6452;41.572;23.732;2023-04-10T09:00:29;2.40;;;2.20;;
12776;SDS011;6452;41.572;23.732;2023-04-10T09:02:59;1.60;;;1.60;;
12776;SDS011;6452;41.572;23.732;2023-04-10T09:05:27;1.58;;;1.48;;
12776;SDS011;6452;41.572;23.732;2023-04-10T09:07:54;2.05;;;1.83;;
12776;SDS011;6452;41.572;23.732;2023-04-10T09:10:20;1.65;;;1.55;;
12776;SDS011;6452;41.572;23.732;2023-04-10T09:12:46;1.50;;;1.50;;
12776;SDS011;6452;41.572;23.732;2023-04-10T09:15:12;1.88;;;1.77;;
12776;SDS011;6452;41.572;23.732;2023-04-10T09:17:59;1.73;;;1.63;;
12776;SDS011;6452;41.572;23.732;2023-04-10T09:20:27;1.90;;;1.80;;
12776;SDS011;6452;41.572;23.732;2023-04-10T09:22:53;1.95;;;1.85;;
12776;SDS011;6452;41.572;23.732;2023-04-10T09:25:30;1.80;;;1.73;;
12776;SDS011;6452;41.572;23.732;2023-04-10T09:28:03;1.42;;;1.42;;
12776;SDS011;6452;41.572;23.732;2023-04-10T09:30:33;2.20;;;2.10;;
12776;SDS011;6452;41.572;23.732;2023-04-10T09:33:00;1.92;;;1.83;;
12776;SDS011;6452;41.572;23.732;2023-04-10T09:35:34;1.92;;;1.83;;
12776;SDS011;6452;41.572;23.732;2023-04-10T09:38:01;2.15;;;2.05;;
12776;SDS011;6452;41.572;23.732;2023-04-10T09:40:26;2.00;;;1.90;;
12776;SDS011;6452;41.572;23.732;2023-04-10T09:42:56;2.47;;;2.22;;
12776;SDS011;6452;41.572;23.732;2023-04-10T09:45:22;2.50;;;2.40;;
12776;SDS011;6452;41.572;23.732;2023-04-10T09:48:21;2.67;;;2.47;;
12776;SDS011;6452;41.572;23.732;2023-04-10T09:50:40;2.03;;;1.92;;
12776;SDS011;6452;41.572;23.732;2023-04-10T09:53:27;1.70;;;1.67;;
12776;SDS011;6452;41.572;23.732;2023-04-10T09:55:52;2.08;;;1.98;;
12776;SDS011;6452;41.572;23.732;2023-04-10T09:58:19;1.88;;;1.80;;
12776;SDS011;6452;41.572;23.732;2023-04-10T10:00:46;2.03;;;1.92;;
12776;SDS011;6452;41.572;23.732;2023-04-10T10:03:13;2.08;;;1.98;;
12776;SDS011;6452;41.572;23.732;2023-04-10T10:05:41;1.73;;;1.63;;
12776;SDS011;6452;41.572;23.732;2023-04-10T10:08:11;1.30;;;1.30;;
12776;SDS011;6452;41.572;23.732;2023-04-10T10:10:53;2.03;;;1.92;;
12776;SDS011;6452;41.572;23.732;2023-04-10T10:13:33;2.40;;;2.30;;
12776;SDS011;6452;41.572;23.732;2023-04-10T10:16:05;1.83;;;1.73;;
12776;SDS011;6452;41.572;23.732;2023-04-10T10:21:01;2.28;;;2.08;;
12776;SDS011;6452;41.572;23.732;2023-04-10T10:23:27;1.98;;;1.88;;
12776;SDS011;6452;41.572;23.732;2023-04-10T10:25:53;1.85;;;1.75;;
12776;SDS011;6452;41.572;23.732;2023-04-10T10:28:20;2.45;;;2.25;;
12776;SDS011;6452;41.572;23.732;2023-04-10T10:30:47;2.30;;;2.20;;
12776;SDS011;6452;41.572;23.732;2023-04-10T10:33:14;2.30;;;2.20;;
12776;SDS011;6452;41.572;23.732;2023-04-10T10:35:40;2.03;;;1.92;;
12776;SDS011;6452;41.572;23.732;2023-04-10T10:38:06;3.22;;;2.85;;
12776;SDS011;6452;41.572;23.732;2023-04-10T10:40:40;2.78;;;2.67;;
12776;SDS011;6452;41.572;23.732;2023-04-10T10:43:15;2.45;;;2.28;;
12776;SDS011;6452;41.572;23.732;2023-04-10T10:48:21;2.38;;;2.28;;
12776;SDS011;6452;41.572;23.732;2023-04-10T10:50:53;2.50;;;2.38;;
12776;SDS011;6452;41.572;23.732;2023-04-10T10:53:35;2.50;;;2.40;;
12776;SDS011;6452;41.572;23.732;2023-04-10T10:58:48;1.60;;;1.60;;
12776;SDS011;6452;41.572;23.732;2023-04-10T11:01:14;2.22;;;2.13;;
12776;SDS011;6452;41.572;23.732;2023-04-10T11:03:40;3.28;;;3.08;;
12776;SDS011;6452;41.572;23.732;2023-04-10T11:06:09;2.25;;;2.15;;
12776;SDS011;6452;41.572;23.732;2023-04-10T11:08:38;2.28;;;2.13;;
12776;SDS011;6452;41.572;23.732;2023-04-10T11:16:14;2.45;;;2.30;;
12776;SDS011;6452;41.572;23.732;2023-04-10T11:21:12;2.03;;;1.92;;
12776;SDS011;6452;41.572;23.732;2023-04-10T11:24:00;6.85;;;6.20;;
12776;SDS011;6452;41.572;23.732;2023-04-10T11:31:37;2.50;;;2.40;;
12776;SDS011;6452;41.572;23.732;2023-04-10T11:34:04;2.45;;;2.35;;
12776;SDS011;6452;41.572;23.732;2023-04-10T11:36:31;2.38;;;2.28;;
12776;SDS011;6452;41.572;23.732;2023-04-10T11:38:58;2.67;;;2.38;;
12776;SDS011;6452;41.572;23.732;2023-04-10T11:41:28;2.33;;;2.22;;
12776;SDS011;6452;41.572;23.732;2023-04-10T11:43:57;1.77;;;1.67;;
12776;SDS011;6452;41.572;23.732;2023-04-10T11:46:23;2.35;;;2.25;;
12776;SDS011;6452;41.572;23.732;2023-04-10T11:48:54;1.98;;;1.88;;
12776;SDS011;6452;41.572;23.732;2023-04-10T11:51:20;2.20;;;2.10;;
12776;SDS011;6452;41.572;23.732;2023-04-10T11:53:47;1.92;;;1.83;;
12776;SDS011;6452;41.572;23.732;2023-04-10T11:56:16;1.88;;;1.80;;
12776;SDS011;6452;41.572;23.732;2023-04-10T11:58:42;2.10;;;2.00;;
12776;SDS011;6452;41.572;23.732;2023-04-10T12:01:09;1.90;;;1.80;;
12776;SDS011;6452;41.572;23.732;2023-04-10T12:06:08;1.85;;;1.75;;
12776;SDS011;6452;41.572;23.732;2023-04-10T12:08:36;2.50;;;2.40;;
12776;SDS011;6452;41.572;23.732;2023-04-10T12:11:03;3.10;;;2.83;;
12776;SDS011;6452;41.572;23.732;2023-04-10T12:13:29;3.25;;;2.95;;
12776;SDS011;6452;41.572;23.732;2023-04-10T12:15:56;2.63;;;2.42;;
12776;SDS011;6452;41.572;23.732;2023-04-10T12:18:23;3.70;;;3.40;;
12776;SDS011;6452;41.572;23.732;2023-04-10T12:20:49;2.97;;;2.72;;
12776;SDS011;6452;41.572;23.732;2023-04-10T12:23:19;2.08;;;1.98;;
12776;SDS011;6452;41.572;23.732;2023-04-10T12:25:46;1.40;;;1.40;;
12776;SDS011;6452;41.572;23.732;2023-04-10T12:28:18;1.60;;;1.60;;
12776;SDS011;6452;41.572;23.732;2023-04-10T12:30:51;2.35;;;2.15;;
12776;SDS011;6452;41.572;23.732;2023-04-10T12:33:20;2.40;;;2.30;;
12776;SDS011;6452;41.572;23.732;2023-04-10T12:35:46;2.75;;;2.55;;
12776;SDS011;6452;41.572;23.732;2023-04-10T12:38:12;2.70;;;2.50;;
12776;SDS011;6452;41.572;23.732;2023-04-10T12:40:56;2.60;;;2.40;;
12776;SDS011;6452;41.572;23.732;2023-04-10T12:43:29;2.25;;;2.15;;
12776;SDS011;6452;41.572;23.732;2023-04-10T12:45:55;3.53;;;2.60;;
12776;SDS011;6452;41.572;23.732;2023-04-10T12:48:22;3.08;;;2.83;;
12776;SDS011;6452;41.572;23.732;2023-04-10T12:50:48;2.10;;;2.00;;
12776;SDS011;6452;41.572;23.732;2023-04-10T12:53:13;2.38;;;2.17;;
12776;SDS011;6452;41.572;23.732;2023-04-10T12:55:40;2.38;;;2.28;;
12776;SDS011;6452;41.572;23.732;2023-04-10T12:58:19;2.47;;;2.28;;
12776;SDS011;6452;41.572;23.732;2023-04-10T13:00:45;2.75;;;2.53;;
12776;SDS011;6452;41.572;23.732;2023-04-10T13:03:11;2.78;;;2.63;;
12776;SDS011;6452;41.572;23.732;2023-04-10T13:05:37;2.33;;;2.22;;
12776;SDS011;6452;41.572;23.732;2023-04-10T13:08:03;2.58;;;2.42;;
12776;SDS011;6452;41.572;23.732;2023-04-10T13:10:29;2.83;;;2.58;;
12776;SDS011;6452;41.572;23.732;2023-04-10T13:12:55;4.05;;;3.60;;
12776;SDS011;6452;41.572;23.732;2023-04-10T13:15:21;4.55;;;4.15;;
12776;SDS011;6452;41.572;23.732;2023-04-10T13:17:48;7.03;;;4.43;;
12776;SDS011;6452;41.572;23.732;2023-04-10T13:20:15;3.60;;;3.30;;
12776;SDS011;6452;41.572;23.732;2023-04-10T13:22:41;4.85;;;4.03;;
12776;SDS011;6452;41.572;23.732;2023-04-10T13:25:07;4.45;;;2.95;;
12776;SDS011;6452;41.572;23.732;2023-04-10T13:27:34;3.03;;;2.83;;
12776;SDS011;6452;41.572;23.732;2023-04-10T13:30:00;3.28;;;2.97;;
12776;SDS011;6452;41.572;23.732;2023-04-10T13:32:26;3.20;;;3.00;;
12776;SDS011;6452;41.572;23.732;2023-04-10T13:34:52;3.17;;;2.90;;
12776;SDS011;6452;41.572;23.732;2023-04-10T13:37:19;2.90;;;2.70;;
12776;SDS011;6452;41.572;23.732;2023-04-10T13:39:45;2.25;;;2.05;;
12776;SDS011;6452;41.572;23.732;2023-04-10T13:42:12;2.00;;;1.90;;
12776;SDS011;6452;41.572;23.732;2023-04-10T13:44:38;1.95;;;1.85;;
12776;SDS011;6452;41.572;23.732;2023-04-10T13:47:04;1.73;;;1.67;;
12776;SDS011;6452;41.572;23.732;2023-04-10T13:49:30;1.95;;;1.90;;
12776;SDS011;6452;41.572;23.732;2023-04-10T13:51:56;2.50;;;2.30;;
12776;SDS011;6452;41.572;23.732;2023-04-10T13:54:22;28.90;;;17.45;;
12776;SDS011;6452;41.572;23.732;2023-04-10T13:56:48;11.05;;;6.82;;
12776;SDS011;6452;41.572;23.732;2023-04-10T13:59:15;4.07;;;3.78;;
12776;SDS011;6452;41.572;23.732;2023-04-10T14:01:40;4.70;;;3.50;;
12776;SDS011;6452;41.572;23.732;2023-04-10T14:04:06;4.35;;;3.92;;
12776;SDS011;6452;41.572;23.732;2023-04-10T14:06:33;4.97;;;4.00;;
12776;SDS011;6452;41.572;23.732;2023-04-10T14:08:59;9.63;;;6.45;;
12776;SDS011;6452;41.572;23.732;2023-04-10T14:11:25;4.85;;;3.55;;
12776;SDS011;6452;41.572;23.732;2023-04-10T14:13:51;2.80;;;2.63;;
12776;SDS011;6452;41.572;23.732;2023-04-10T14:16:18;3.85;;;3.50;;
12776;SDS011;6452;41.572;23.732;2023-04-10T14:18:44;6.05;;;4.65;;
12776;SDS011;6452;41.572;23.732;2023-04-10T14:21:10;81.68;;;31.30;;
12776;SDS011;6452;41.572;23.732;2023-04-10T14:23:36;41.65;;;18.20;;
12776;SDS011;6452;41.572;23.732;2023-04-10T14:26:05;5.82;;;4.57;;
12776;SDS011;6452;41.572;23.732;2023-04-10T14:28:48;12.07;;;6.97;;
12776;SDS011;6452;41.572;23.732;2023-04-10T14:31:15;25.67;;;14.20;;
12776;SDS011;6452;41.572;23.732;2023-04-10T14:33:41;9.27;;;6.30;;
12776;SDS011;6452;41.572;23.732;2023-04-10T14:36:08;13.15;;;6.72;;
12776;SDS011;6452;41.572;23.732;2023-04-10T14:38:35;9.57;;;5.90;;
12776;SDS011;6452;41.572;23.732;2023-04-10T14:41:04;7.55;;;6.32;;
12776;SDS011;6452;41.572;23.732;2023-04-10T14:43:31;33.90;;;19.67;;
12776;SDS011;6452;41.572;23.732;2023-04-10T14:45:57;13.70;;;10.07;;
12776;SDS011;6452;41.572;23.732;2023-04-10T14:48:23;8.10;;;5.53;;
12776;SDS011;6452;41.572;23.732;2023-04-10T14:50:49;7.80;;;5.90;;
12776;SDS011;6452;41.572;23.732;2023-04-10T14:53:15;8.55;;;6.10;;
12776;SDS011;6452;41.572;23.732;2023-04-10T14:55:41;7.07;;;5.53;;
12776;SDS011;6452;41.572;23.732;2023-04-10T14:58:07;6.25;;;5.10;;
12776;SDS011;6452;41.572;23.732;2023-04-10T15:00:35;5.07;;;4.55;;
12776;SDS011;6452;41.572;23.732;2023-04-10T15:03:01;7.78;;;4.90;;
12776;SDS011;6452;41.572;23.732;2023-04-10T15:05:30;7.80;;;5.13;;
12776;SDS011;6452;41.572;23.732;2023-04-10T15:07:56;10.98;;;7.15;;
12776;SDS011;6452;41.572;23.732;2023-04-10T15:10:22;5.57;;;4.68;;
12776;SDS011;6452;41.572;23.732;2023-04-10T15:12:48;10.80;;;5.38;;
12776;SDS011;6452;41.572;23.732;2023-04-10T15:15:13;4.50;;;4.05;;
12776;SDS011;6452;41.572;23.732;2023-04-10T15:17:39;5.00;;;4.18;;
12776;SDS011;6452;41.572;23.732;2023-04-10T15:20:06;6.78;;;3.95;;